Time;durP1;ratioP1;P1;durP2;ratioP2;P2;SDS_P1;SDS_P2;PMS_P1;PMS_P2;Temp;Humidity;BMP_temperature;BMP_pressure;BME280_temperature;BME280_humidity;BME280_pressure;Samples;Min_cycle;Max_cycle;Signal;HPM_P1;HPM_P2
2022/08/07 00:01:12;;;;;;;1.85;1.60;;;14.40;99.90;;;;;;5035822;28;38241;-79
2022/08/07 00:03:38;;;;;;;2.13;1.55;;;14.40;99.90;;;;;;5038812;28;37422;-77
2022/08/07 00:06:05;;;;;;;3.95;1.70;;;14.40;99.90;;;;;;5037907;28;36501;-77
2022/08/07 00:08:31;;;;;;;3.33;1.65;;;14.30;99.90;;;;;;5039812;28;40284;-77
2022/08/07 00:10:57;;;;;;;3.00;1.70;;;14.20;99.90;;;;;;5034475;28;39095;-78
2022/08/07 00:13:24;;;;;;;3.70;1.73;;;14.20;99.90;;;;;;5034402;28;37743;-77
2022/08/07 00:15:50;;;;;;;2.10;1.70;;;14.20;99.90;;;;;;5027780;28;38233;-78
2022/08/07 00:18:18;;;;;;;3.13;1.73;;;14.10;99.90;;;;;;5036893;28;40273;-78
2022/08/07 00:20:45;;;;;;;3.20;1.90;;;14.10;99.90;;;;;;5039716;28;39918;-77
2022/08/07 00:23:11;;;;;;;2.25;1.42;;;14.10;99.90;;;;;;5026305;28;38233;-77
2022/08/07 00:25:37;;;;;;;3.17;1.90;;;14.10;99.90;;;;;;5032682;28;37121;-78
2022/08/07 00:28:03;;;;;;;2.05;1.75;;;14.10;99.90;;;;;;5028143;28;39592;-76
2022/08/07 00:30:29;;;;;;;2.88;1.65;;;14.10;99.90;;;;;;5028486;28;38473;-77
2022/08/07 00:32:57;;;;;;;2.00;1.50;;;14.10;99.90;;;;;;5036431;28;38950;-77
2022/08/07 00:35:23;;;;;;;1.98;1.60;;;14.00;99.90;;;;;;5039143;28;37987;-76
2022/08/07 00:37:50;;;;;;;2.28;1.60;;;14.00;99.90;;;;;;5038584;28;39412;-76
2022/08/07 00:40:16;;;;;;;2.28;1.73;;;14.00;99.90;;;;;;5034436;28;37489;-77
2022/08/07 00:42:43;;;;;;;2.38;1.70;;;14.00;99.90;;;;;;5037675;28;37966;-77
2022/08/07 00:45:10;;;;;;;2.83;1.85;;;14.00;99.90;;;;;;5037890;28;37045;-77
2022/08/07 00:47:37;;;;;;;3.28;1.80;;;14.00;99.90;;;;;;5042482;28;39015;-76
2022/08/07 00:50:04;;;;;;;1.77;1.63;;;14.00;99.90;;;;;;5035699;28;38446;-77
2022/08/07 00:52:30;;;;;;;1.92;1.60;;;13.90;99.90;;;;;;5034876;28;48250;-77
2022/08/07 00:54:56;;;;;;;2.72;1.63;;;13.90;99.90;;;;;;5039513;28;38892;-76
2022/08/07 00:57:24;;;;;;;1.70;1.60;;;13.90;99.90;;;;;;5052155;27;40637;-76
2022/08/07 00:59:51;;;;;;;3.28;1.85;;;13.80;99.90;;;;;;5032771;28;38688;-77
2022/08/07 01:02:18;;;;;;;2.92;2.17;;;13.80;99.90;;;;;;5034164;28;39270;-77
2022/08/07 01:04:44;;;;;;;2.38;1.67;;;13.80;99.90;;;;;;5031946;28;38909;-76
2022/08/07 01:07:11;;;;;;;2.33;1.63;;;13.70;99.90;;;;;;5037859;28;38431;-77
2022/08/07 01:09:37;;;;;;;2.95;1.75;;;13.70;99.90;;;;;;5044708;28;38370;-77
2022/08/07 01:12:04;;;;;;;2.33;1.90;;;13.70;99.90;;;;;;5024895;28;37233;-77
2022/08/07 01:14:30;;;;;;;2.53;1.80;;;13.70;99.90;;;;;;5032243;28;36802;-76
2022/08/07 01:16:57;;;;;;;3.50;2.00;;;13.60;99.90;;;;;;5070795;28;39714;-77
2022/08/07 01:19:25;;;;;;;2.55;2.00;;;13.60;99.90;;;;;;5032448;28;38565;-77
2022/08/07 01:21:53;;;;;;;1.83;1.70;;;13.60;99.90;;;;;;5038080;27;37596;-76
2022/08/07 01:24:20;;;;;;;4.45;2.00;;;13.60;99.90;;;;;;5046212;27;37905;-76
2022/08/07 01:26:46;;;;;;;2.45;1.90;;;13.50;99.90;;;;;;5038449;28;38330;-76
2022/08/07 01:29:13;;;;;;;2.88;1.88;;;13.50;99.90;;;;;;5030391;28;39170;-76
2022/08/07 01:31:39;;;;;;;3.22;1.83;;;13.50;99.90;;;;;;5071227;28;37681;-76
2022/08/07 01:34:06;;;;;;;2.60;1.83;;;13.50;99.90;;;;;;5075362;27;37800;-77
2022/08/07 01:36:32;;;;;;;2.20;1.70;;;13.40;99.90;;;;;;5037150;28;38540;-78
2022/08/07 01:38:59;;;;;;;5.05;2.65;;;13.40;99.90;;;;;;5037974;28;37881;-76
2022/08/07 01:41:26;;;;;;;3.15;1.95;;;13.50;99.90;;;;;;5022615;28;38627;-77
2022/08/07 01:43:52;;;;;;;2.17;1.58;;;13.40;99.90;;;;;;5035221;27;37258;-76
2022/08/07 01:46:19;;;;;;;3.40;2.28;;;13.40;99.90;;;;;;5036553;28;39338;-78
2022/08/07 01:48:47;;;;;;;2.28;1.80;;;13.40;99.90;;;;;;5032815;28;36933;-77
2022/08/07 01:51:18;;;;;;;1.80;1.70;;;13.40;99.90;;;;;;5033704;28;38621;-76
2022/08/07 01:53:48;;;;;;;3.45;2.38;;;13.40;99.90;;;;;;5038371;28;36553;-77
2022/08/07 01:56:21;;;;;;;3.35;1.73;;;13.40;99.90;;;;;;5040252;28;38677;-77
2022/08/07 01:58:51;;;;;;;2.10;1.90;;;13.40;99.90;;;;;;5067909;28;39096;-79
2022/08/07 02:01:26;;;;;;;2.15;1.95;;;13.40;99.90;;;;;;5035412;28;38339;-77
2022/08/07 02:04:23;;;;;;;3.03;2.10;;;13.40;99.90;;;;;;5030262;28;37826;-78
2022/08/07 02:06:50;;;;;;;1.88;1.73;;;13.30;99.90;;;;;;5032869;28;48172;-77
2022/08/07 02:09:18;;;;;;;3.35;2.15;;;13.30;99.90;;;;;;5038463;28;37603;-76
2022/08/07 02:11:48;;;;;;;2.13;1.88;;;13.30;99.90;;;;;;5036115;28;37624;-77
2022/08/07 02:14:17;;;;;;;2.42;1.77;;;13.30;99.90;;;;;;5028514;27;37467;-77
2022/08/07 02:16:46;;;;;;;3.45;2.28;;;13.30;99.90;;;;;;5065150;28;37507;-77
2022/08/07 02:19:13;;;;;;;3.03;2.15;;;13.30;99.90;;;;;;5038654;28;38152;-77
2022/08/07 02:21:40;;;;;;;2.67;1.95;;;13.30;99.90;;;;;;5036210;27;37485;-77
2022/08/07 02:24:08;;;;;;;3.88;1.80;;;13.30;99.90;;;;;;5037883;28;36393;-77
2022/08/07 02:26:36;;;;;;;2.08;1.80;;;13.30;99.90;;;;;;5038492;27;38523;-76
2022/08/07 02:29:06;;;;;;;2.72;2.33;;;13.20;99.90;;;;;;5030134;28;37352;-77
2022/08/07 02:31:33;;;;;;;2.28;1.88;;;13.20;99.90;;;;;;5032398;28;36250;-77
2022/08/07 02:34:01;;;;;;;1.70;1.60;;;13.10;99.90;;;;;;5039430;28;37055;-79
2022/08/07 02:36:28;;;;;;;2.80;2.00;;;13.10;99.90;;;;;;5033949;28;46989;-77
2022/08/07 02:39:00;;;;;;;1.70;1.60;;;13.10;99.90;;;;;;5062682;28;37244;-77
2022/08/07 02:41:27;;;;;;;1.80;1.70;;;13.10;99.90;;;;;;5038696;28;37300;-77
2022/08/07 02:43:56;;;;;;;2.70;2.40;;;13.10;99.90;;;;;;5067617;28;37581;-78
2022/08/07 02:46:25;;;;;;;2.75;1.83;;;13.10;99.90;;;;;;5033321;28;39381;-77
2022/08/07 02:48:51;;;;;;;2.22;1.88;;;13.00;99.90;;;;;;5034113;28;37430;-76
2022/08/07 02:51:21;;;;;;;3.10;1.90;;;13.00;99.90;;;;;;5036691;28;38833;-76
2022/08/07 02:53:53;;;;;;;2.38;2.17;;;13.00;99.90;;;;;;5063934;28;37620;-76
2022/08/07 02:56:21;;;;;;;3.65;1.90;;;13.00;99.90;;;;;;5040818;28;40043;-76
2022/08/07 02:58:51;;;;;;;3.58;2.08;;;13.00;99.90;;;;;;5044722;27;38544;-75
2022/08/07 03:01:21;;;;;;;2.80;2.08;;;13.00;99.90;;;;;;5038821;28;38010;-78
2022/08/07 03:03:49;;;;;;;2.38;1.83;;;12.90;99.90;;;;;;5031094;28;37322;-75
2022/08/07 03:06:17;;;;;;;3.45;2.00;;;13.00;99.90;;;;;;5041185;28;40900;-76
2022/08/07 03:08:44;;;;;;;2.88;1.80;;;12.90;99.90;;;;;;5074372;28;37825;-76
2022/08/07 03:11:10;;;;;;;3.63;2.10;;;12.90;99.90;;;;;;5038099;27;37939;-75
2022/08/07 03:13:36;;;;;;;2.83;2.17;;;12.90;99.90;;;;;;5036629;28;35377;-76
2022/08/07 03:16:03;;;;;;;3.58;1.90;;;12.90;99.90;;;;;;5035999;28;39179;-76
2022/08/07 03:18:29;;;;;;;2.35;2.13;;;12.90;99.90;;;;;;5038343;28;38982;-77
2022/08/07 03:20:56;;;;;;;2.00;1.80;;;12.90;99.90;;;;;;5037993;28;38413;-76
2022/08/07 03:23:26;;;;;;;2.10;1.90;;;12.90;99.90;;;;;;5066616;28;37893;-76
2022/08/07 03:25:54;;;;;;;2.50;2.00;;;12.90;99.90;;;;;;5073678;28;39521;-76
2022/08/07 03:28:20;;;;;;;2.40;2.03;;;12.80;99.90;;;;;;5038154;28;38929;-76
2022/08/07 03:30:48;;;;;;;1.92;1.73;;;12.80;99.90;;;;;;5038726;28;37221;-76
2022/08/07 03:33:16;;;;;;;3.40;2.17;;;12.80;99.90;;;;;;5051571;27;37485;-76
2022/08/07 03:35:44;;;;;;;2.85;2.00;;;12.80;99.90;;;;;;5042907;28;38504;-76
2022/08/07 03:38:10;;;;;;;2.92;2.00;;;12.80;99.90;;;;;;5040948;28;38834;-76
2022/08/07 03:40:37;;;;;;;3.55;2.25;;;12.80;99.90;;;;;;5052780;28;36746;-76
2022/08/07 03:43:04;;;;;;;2.58;2.20;;;12.80;99.90;;;;;;5031410;28;36981;-77
2022/08/07 03:45:31;;;;;;;2.63;2.10;;;12.80;99.90;;;;;;5052767;28;38740;-76
2022/08/07 03:47:58;;;;;;;5.70;2.38;;;12.80;99.90;;;;;;5076741;27;38963;-76
2022/08/07 03:50:25;;;;;;;4.82;3.53;;;12.70;99.90;;;;;;5037663;28;38440;-77
2022/08/07 03:52:54;;;;;;;5.05;3.47;;;12.70;99.90;;;;;;5041205;28;37249;-76
2022/08/07 03:55:20;;;;;;;2.75;2.35;;;12.70;99.90;;;;;;5036662;28;39734;-76
2022/08/07 03:57:48;;;;;;;2.55;2.35;;;12.70;99.90;;;;;;5037584;27;39161;-76
2022/08/07 04:00:15;;;;;;;4.15;2.55;;;12.70;99.90;;;;;;5072611;27;37039;-76
2022/08/07 04:02:43;;;;;;;2.10;1.88;;;12.70;99.90;;;;;;5040925;28;37104;-75
2022/08/07 04:05:09;;;;;;;4.10;2.30;;;12.60;99.90;;;;;;5042556;28;38600;-75
2022/08/07 04:07:38;;;;;;;3.92;2.30;;;12.60;99.90;;;;;;5041686;28;38865;-75
2022/08/07 04:10:05;;;;;;;4.40;2.33;;;12.60;99.90;;;;;;5040728;28;37795;-76
2022/08/07 04:12:32;;;;;;;4.22;2.08;;;12.60;99.90;;;;;;5038897;28;37234;-76
2022/08/07 04:15:01;;;;;;;4.00;2.33;;;12.60;99.90;;;;;;5036582;28;39157;-77
2022/08/07 04:17:27;;;;;;;3.42;2.10;;;12.60;99.90;;;;;;5037157;28;39540;-76
2022/08/07 04:19:53;;;;;;;7.45;2.40;;;12.60;99.90;;;;;;5044046;27;37569;-76
2022/08/07 04:22:22;;;;;;;2.13;1.70;;;12.60;99.90;;;;;;5037665;28;37153;-76
2022/08/07 04:24:49;;;;;;;2.55;2.03;;;12.60;99.90;;;;;;5042017;28;39326;-76
2022/08/07 04:27:16;;;;;;;3.60;2.60;;;12.60;99.90;;;;;;5067173;28;38751;-77
2022/08/07 04:29:43;;;;;;;4.53;2.33;;;12.50;99.90;;;;;;5028519;28;36846;-77
2022/08/07 04:32:10;;;;;;;2.83;2.15;;;12.60;99.90;;;;;;5039072;28;37211;-76
2022/08/07 04:34:36;;;;;;;3.42;2.25;;;12.60;99.90;;;;;;5042003;28;39077;-76
2022/08/07 04:37:05;;;;;;;3.25;2.03;;;12.60;99.90;;;;;;5039430;28;37083;-76
2022/08/07 04:39:31;;;;;;;6.85;2.22;;;12.60;99.90;;;;;;5048632;28;36878;-75
2022/08/07 04:42:02;;;;;;;2.83;2.30;;;12.60;99.90;;;;;;5041956;28;38064;-76
2022/08/07 04:44:28;;;;;;;2.30;2.03;;;12.60;99.90;;;;;;5035448;28;48692;-76
2022/08/07 04:47:28;;;;;;;2.17;1.98;;;12.60;99.90;;;;;;5039618;28;38498;-76
2022/08/07 04:50:06;;;;;;;2.60;2.28;;;12.60;99.90;;;;;;5053124;28;47093;-76
2022/08/07 04:52:45;;;;;;;4.47;2.22;;;12.60;99.90;;;;;;5079422;27;47396;-76
2022/08/07 04:55:17;;;;;;;4.00;2.33;;;12.60;99.90;;;;;;5032303;28;37445;-76
2022/08/07 04:57:50;;;;;;;2.33;2.13;;;12.70;99.90;;;;;;5071434;27;38875;-76
2022/08/07 05:00:20;;;;;;;3.47;2.10;;;12.70;99.90;;;;;;5041289;28;36632;-76
2022/08/07 05:03:10;;;;;;;3.28;2.65;;;12.70;99.90;;;;;;5041441;28;36669;-76
2022/08/07 05:05:47;;;;;;;2.40;2.20;;;12.70;99.90;;;;;;5032506;28;47149;-76
2022/08/07 05:08:40;;;;;;;2.83;2.22;;;12.70;99.90;;;;;;5045645;28;37087;-76
2022/08/07 05:11:13;;;;;;;2.60;2.20;;;12.80;99.90;;;;;;5036517;28;37149;-76
2022/08/07 05:14:05;;;;;;;3.72;2.08;;;12.80;99.90;;;;;;5034385;28;38087;-76
2022/08/07 05:16:33;;;;;;;3.97;2.47;;;12.80;99.90;;;;;;5038167;28;47089;-77
2022/08/07 05:19:06;;;;;;;3.65;2.50;;;12.90;99.90;;;;;;5041367;28;39340;-76
2022/08/07 05:21:33;;;;;;;;;;;12.90;99.90;;;;;;5039789;28;47325;-76
2022/08/07 05:24:03;;;;;;;2.65;2.30;;;13.00;99.90;;;;;;5042476;28;37482;-77
2022/08/07 05:26:32;;;;;;;4.65;2.45;;;13.00;99.90;;;;;;5031708;28;50391;-76
2022/08/07 05:29:01;;;;;;;3.03;2.53;;;13.10;99.90;;;;;;5032311;28;38164;-77
2022/08/07 05:31:37;;;;;;;2.75;2.08;;;13.10;99.90;;;;;;5032986;28;42052;-76
2022/08/07 05:34:06;;;;;;;4.10;2.75;;;13.20;99.90;;;;;;5036513;27;38166;-77
2022/08/07 05:36:33;;;;;;;3.55;2.80;;;13.20;99.90;;;;;;5033515;28;38736;-76
2022/08/07 05:39:00;;;;;;;3.72;3.08;;;13.30;99.90;;;;;;5030113;28;39181;-76
2022/08/07 05:41:26;;;;;;;3.38;3.08;;;13.40;99.90;;;;;;5035174;28;36317;-76
2022/08/07 05:43:55;;;;;;;6.78;3.15;;;13.50;99.90;;;;;;5031813;28;36931;-76
2022/08/07 05:46:22;;;;;;;4.22;3.08;;;13.50;99.90;;;;;;5033307;28;38444;-76
2022/08/07 05:48:50;;;;;;;4.20;3.00;;;13.60;99.90;;;;;;5035092;28;38555;-76
2022/08/07 05:51:17;;;;;;;4.10;2.85;;;13.60;99.90;;;;;;5034069;28;37335;-77
2022/08/07 05:53:44;;;;;;;5.93;3.22;;;13.70;99.90;;;;;;5032844;28;40379;-77
2022/08/07 05:56:12;;;;;;;6.80;4.03;;;13.70;99.90;;;;;;5066155;28;39040;-77
2022/08/07 05:58:40;;;;;;;4.70;3.58;;;13.80;99.90;;;;;;5042143;28;39366;-77
2022/08/07 06:01:09;;;;;;;4.60;3.83;;;13.90;99.90;;;;;;5041079;27;38451;-77
2022/08/07 06:03:37;;;;;;;5.07;3.97;;;14.00;99.90;;;;;;5048874;28;37790;-77
2022/08/07 06:06:04;;;;;;;4.03;3.63;;;14.10;99.90;;;;;;5040309;28;40397;-78
2022/08/07 06:08:31;;;;;;;4.70;4.20;;;14.20;99.90;;;;;;5046155;28;38692;-77
2022/08/07 06:10:58;;;;;;;6.32;4.05;;;14.20;99.90;;;;;;5051450;28;38319;-78
2022/08/07 06:13:24;;;;;;;4.40;4.00;;;14.30;99.90;;;;;;5035860;28;36248;-78
2022/08/07 06:15:53;;;;;;;4.88;3.75;;;14.50;99.90;;;;;;5036970;28;38002;-77
2022/08/07 06:18:20;;;;;;;5.40;3.92;;;14.60;99.90;;;;;;5036401;28;37868;-80
2022/08/07 06:20:47;;;;;;;4.78;4.15;;;14.70;99.90;;;;;;5035633;28;38451;-78
2022/08/07 06:23:13;;;;;;;5.78;4.03;;;14.80;99.90;;;;;;5037505;27;38082;-78
2022/08/07 06:25:40;;;;;;;5.38;4.25;;;15.10;99.90;;;;;;5034598;28;39504;-78
2022/08/07 06:28:09;;;;;;;5.30;4.63;;;15.30;99.90;;;;;;5062544;28;39404;-79
2022/08/07 06:30:36;;;;;;;8.35;4.65;;;15.50;99.90;;;;;;5060937;28;36872;-78
2022/08/07 06:33:04;;;;;;;6.10;4.25;;;15.80;99.90;;;;;;5042757;28;38009;-78
2022/08/07 06:35:33;;;;;;;6.13;3.60;;;16.00;99.90;;;;;;5037140;28;38914;-77
2022/08/07 06:37:59;;;;;;;7.53;3.40;;;16.30;99.90;;;;;;5036372;28;39636;-78
2022/08/07 06:40:28;;;;;;;6.25;3.70;;;16.50;99.90;;;;;;5038801;27;37226;-79
2022/08/07 06:42:56;;;;;;;5.43;3.50;;;16.70;99.90;;;;;;5039447;27;37252;-77
2022/08/07 06:45:23;;;;;;;4.28;3.45;;;16.90;99.90;;;;;;5039742;28;38877;-77
2022/08/07 06:47:50;;;;;;;4.68;4.05;;;17.10;99.90;;;;;;5039901;28;39683;-77
2022/08/07 06:50:16;;;;;;;5.18;3.80;;;17.40;99.90;;;;;;5041763;28;37981;-76
2022/08/07 06:52:46;;;;;;;4.32;3.13;;;17.60;99.90;;;;;;5040509;27;37009;-75
2022/08/07 06:55:23;;;;;;;6.10;4.15;;;17.80;99.90;;;;;;5033921;27;39647;-77
2022/08/07 06:57:51;;;;;;;4.78;3.67;;;17.90;99.90;;;;;;5067375;28;38603;-74
2022/08/07 07:00:18;;;;;;;4.32;3.47;;;18.10;99.90;;;;;;5031971;28;37180;-75
2022/08/07 07:02:46;;;;;;;3.83;3.53;;;18.20;99.90;;;;;;5034667;28;36630;-75
2022/08/07 07:05:13;;;;;;;5.43;3.22;;;18.60;99.90;;;;;;5028892;28;38322;-75
2022/08/07 07:07:39;;;;;;;4.70;3.33;;;18.80;99.90;;;;;;5031924;28;38989;-74
2022/08/07 07:10:06;;;;;;;3.65;3.10;;;18.90;99.90;;;;;;5030596;28;38302;-76
2022/08/07 07:12:45;;;;;;;5.63;3.90;;;19.20;99.90;;;;;;5055844;28;38742;-76
2022/08/07 07:15:27;;;;;;;4.85;4.07;;;19.40;99.90;;;;;;5028822;28;39704;-74
2022/08/07 07:18:21;;;;;;;5.78;3.63;;;19.40;99.90;;;;;;5025876;28;38445;-75
2022/08/07 07:21:02;;;;;;;5.03;3.67;;;19.70;99.90;;;;;;5027968;28;48551;-75
2022/08/07 07:23:31;;;;;;;4.13;3.20;;;20.00;99.90;;;;;;5020717;28;47668;-75
2022/08/07 07:26:03;;;;;;;5.82;2.83;;;20.20;99.90;;;;;;5030287;28;39680;-76
2022/08/07 07:28:41;;;;;;;5.00;2.75;;;20.60;99.90;;;;;;5025827;28;47458;-76
2022/08/07 07:31:17;;;;;;;3.20;2.80;;;20.70;99.90;;;;;;5006251;28;39499;-77
2022/08/07 07:33:44;;;;;;;5.82;2.33;;;20.80;99.90;;;;;;5009164;28;37990;-76
2022/08/07 07:36:11;;;;;;;3.10;2.40;;;20.80;99.90;;;;;;5008413;28;38345;-76
2022/08/07 07:38:39;;;;;;;3.22;2.55;;;20.90;99.90;;;;;;5011083;28;39623;-75
2022/08/07 07:41:09;;;;;;;5.55;2.45;;;21.00;99.90;;;;;;5039754;28;38253;-76
2022/08/07 07:43:40;;;;;;;3.00;2.17;;;21.00;99.90;;;;;;5030503;27;38026;-77
2022/08/07 07:46:08;;;;;;;2.38;2.03;;;21.20;99.90;;;;;;5019215;28;38526;-76
2022/08/07 07:48:35;;;;;;;4.85;2.30;;;21.30;99.90;;;;;;5015369;28;40689;-76
2022/08/07 07:51:03;;;;;;;2.53;2.28;;;21.40;99.90;;;;;;5013930;28;39323;-76
2022/08/07 07:53:30;;;;;;;2.97;2.25;;;21.50;99.90;;;;;;5025595;28;48647;-77
2022/08/07 07:55:58;;;;;;;4.10;2.50;;;21.50;99.90;;;;;;5045504;28;40468;-76
2022/08/07 07:58:30;;;;;;;5.22;2.53;;;21.80;99.90;;;;;;5036085;28;39099;-77
2022/08/07 08:00:58;;;;;;;2.33;2.08;;;22.00;99.90;;;;;;5026375;28;36448;-78
2022/08/07 08:03:25;;;;;;;3.67;2.40;;;22.00;99.90;;;;;;5058034;28;37844;-78
2022/08/07 08:05:52;;;;;;;3.42;2.35;;;22.00;99.90;;;;;;5025646;27;38482;-78
2022/08/07 08:08:19;;;;;;;2.45;2.00;;;22.00;99.90;;;;;;5032408;28;40066;-78
2022/08/07 08:10:46;;;;;;;2.95;2.33;;;22.10;99.90;;;;;;5035531;28;36829;-78
2022/08/07 08:13:14;;;;;;;3.35;2.22;;;22.20;99.90;;;;;;5045746;28;37869;-78
2022/08/07 08:15:46;;;;;;;2.30;2.10;;;21.90;99.90;;;;;;5040900;28;37901;-76
2022/08/07 08:18:14;;;;;;;3.72;2.03;;;21.80;99.90;;;;;;5028101;28;37224;-76
2022/08/07 08:20:43;;;;;;;2.20;2.00;;;21.90;99.90;;;;;;5035353;28;39124;-76
2022/08/07 08:28:44;;;;;;;3.22;2.17;;;22.60;99.90;;;;;;5033701;27;49223;-78
2022/08/07 08:31:14;;;;;;;3.85;2.33;;;22.70;99.90;;;;;;5029274;28;38198;-77
2022/08/07 08:33:42;;;;;;;3.53;1.83;;;22.80;99.90;;;;;;5030422;28;37116;-76
2022/08/07 08:36:10;;;;;;;5.38;1.75;;;22.80;99.90;;;;;;5062273;28;40225;-77
2022/08/07 08:39:00;;;;;;;6.22;1.90;;;22.80;99.90;;;;;;5052602;28;37204;-76
2022/08/07 08:41:41;;;;;;;3.88;1.98;;;22.90;99.90;;;;;;5036112;27;37697;-76
2022/08/07 08:44:32;;;;;;;4.97;2.00;;;23.00;99.90;;;;;;5048724;28;37695;-76
2022/08/07 08:47:04;;;;;;;4.68;1.80;;;23.20;99.90;;;;;;5043287;28;38683;-76
2022/08/07 08:49:37;;;;;;;2.72;1.60;;;23.20;99.90;;;;;;5012225;28;47188;-78
2022/08/07 08:52:12;;;;;;;3.13;1.60;;;23.10;99.90;;;;;;5022704;28;38175;-77
2022/08/07 08:54:48;;;;;;;2.17;1.60;;;23.20;99.90;;;;;;5028800;28;37233;-77
2022/08/07 08:57:26;;;;;;;2.90;1.58;;;23.20;99.90;;;;;;5029314;27;39047;-77
2022/08/07 09:00:01;;;;;;;3.47;1.30;;;23.30;99.90;;;;;;5047145;27;39606;-77
2022/08/07 09:02:38;;;;;;;1.92;1.40;;;23.40;99.90;;;;;;5024007;28;38096;-77
2022/08/07 09:05:27;;;;;;;1.70;1.60;;;23.30;99.90;;;;;;5025551;28;37257;-78
2022/08/07 09:08:23;;;;;;;1.50;1.40;;;23.40;99.90;;;;;;5059873;27;39022;-77
2022/08/07 09:10:52;;;;;;;2.10;1.20;;;23.60;99.90;;;;;;5048140;28;47106;-77
2022/08/07 09:13:40;;;;;;;3.60;1.17;;;23.50;99.90;;;;;;5035611;27;39042;-78
2022/08/07 09:16:22;;;;;;;3.75;1.25;;;23.40;99.90;;;;;;5025415;28;39194;-77
2022/08/07 09:19:00;;;;;;;2.10;1.17;;;23.60;99.90;;;;;;5049281;27;39671;-75
2022/08/07 09:21:42;;;;;;;1.50;1.20;;;23.80;99.90;;;;;;5021658;28;40616;-77
2022/08/07 09:24:39;;;;;;;2.80;1.58;;;24.10;99.90;;;;;;5033114;28;37793;-76
2022/08/07 09:27:27;;;;;;;2.45;1.20;;;24.10;99.90;;;;;;5042716;28;38944;-77
2022/08/07 09:30:08;;;;;;;2.35;1.10;;;24.10;99.90;;;;;;5034443;28;40829;-76
2022/08/07 09:33:15;;;;;;;3.05;1.42;;;24.30;99.90;;;;;;5040450;28;45737;-77
2022/08/07 09:36:16;;;;;;;1.20;1.10;;;24.40;99.90;;;;;;5066693;28;47084;-76
2022/08/07 09:39:13;;;;;;;2.05;1.30;;;24.40;99.90;;;;;;5051444;27;48173;-75
2022/08/07 09:41:52;;;;;;;1.80;1.20;;;24.50;99.90;;;;;;5042808;27;48371;-78
2022/08/07 09:44:31;;;;;;;2.47;1.27;;;24.40;99.90;;;;;;5044568;28;38340;-76
2022/08/07 09:47:35;;;;;;;4.53;1.38;;;24.60;99.90;;;;;;5059904;28;38500;-76
2022/08/07 09:50:29;;;;;;;1.63;1.13;;;24.60;99.90;;;;;;5028299;28;50208;-75
2022/08/07 09:53:00;;;;;;;2.80;0.88;;;24.80;99.90;;;;;;5041908;28;48059;-76
2022/08/07 09:55:45;;;;;;;2.05;1.38;;;25.00;99.90;;;;;;5038800;28;48455;-76
2022/08/07 09:58:46;;;;;;;1.75;1.00;;;24.90;99.90;;;;;;5044772;28;37532;-75
2022/08/07 10:01:56;;;;;;;1.73;1.10;;;24.90;99.90;;;;;;5044453;28;37382;-75
2022/08/07 10:04:43;;;;;;;2.20;1.10;;;25.20;99.90;;;;;;5038752;28;38906;-75
2022/08/07 10:07:31;;;;;;;1.70;1.00;;;25.50;99.90;;;;;;5051783;28;38773;-75
2022/08/07 10:10:18;;;;;;;3.97;1.33;;;25.70;99.90;;;;;;5065868;27;38151;-76
2022/08/07 10:13:03;;;;;;;2.55;0.95;;;25.80;99.90;;;;;;5046219;28;48832;-76
2022/08/07 10:15:37;;;;;;;2.08;1.23;;;25.60;99.90;;;;;;5051456;28;47307;-75
2022/08/07 10:18:18;;;;;;;1.55;1.15;;;25.60;99.90;;;;;;5050273;27;38489;-76
2022/08/07 10:20:59;;;;;;;2.13;1.20;;;25.30;99.90;;;;;;5052271;28;37637;-80
2022/08/07 10:23:50;;;;;;;1.98;1.00;;;25.40;99.90;;;;;;5040687;28;38328;-75
2022/08/07 10:26:50;;;;;;;1.15;0.90;;;25.50;99.90;;;;;;5043676;28;39089;-75
2022/08/07 10:29:19;;;;;;;1.35;0.90;;;25.60;99.90;;;;;;5055121;28;39413;-77
2022/08/07 10:31:57;;;;;;;1.58;1.15;;;25.80;99.90;;;;;;5039789;28;36426;-74
2022/08/07 10:34:36;;;;;;;2.38;1.08;;;26.10;99.90;;;;;;5041238;28;37357;-75
2022/08/07 10:37:24;;;;;;;2.90;1.17;;;26.20;99.90;;;;;;5065953;27;38086;-78
2022/08/07 10:40:09;;;;;;;1.23;1.10;;;26.30;99.90;;;;;;5042219;28;38765;-76
2022/08/07 10:43:06;;;;;;;4.25;1.70;;;26.30;99.90;;;;;;5029965;28;47440;-78
2022/08/07 10:45:44;;;;;;;1.85;1.08;;;26.40;99.90;;;;;;5063766;28;47171;-75
2022/08/07 10:48:25;;;;;;;1.42;1.00;;;26.50;99.90;;;;;;5046171;28;38854;-76
2022/08/07 10:51:02;;;;;;;1.77;1.23;;;26.70;99.90;;;;;;5048934;27;39158;-76
2022/08/07 10:54:00;;;;;;;1.20;1.10;;;26.90;99.90;;;;;;5035900;28;47678;-77
2022/08/07 10:56:52;;;;;;;1.13;0.98;;;26.60;99.90;;;;;;5033667;28;38600;-78
2022/08/07 11:00:05;;;;;;;1.30;0.90;;;26.60;99.90;;;;;;5043214;28;40875;-77
2022/08/07 11:02:34;;;;;;;3.22;1.27;;;26.90;99.90;;;;;;5047852;28;47137;-77
2022/08/07 11:05:23;;;;;;;1.63;1.13;;;27.10;99.90;;;;;;5029441;28;38511;-78
2022/08/07 11:08:08;;;;;;;1.48;1.27;;;27.20;99.90;;;;;;5038434;28;48364;-77
2022/08/07 11:10:54;;;;;;;1.83;1.25;;;27.10;99.90;;;;;;5070812;28;47022;-76
2022/08/07 11:13:46;;;;;;;1.88;1.20;;;27.00;99.90;;;;;;5041241;27;39114;-77
2022/08/07 11:16:26;;;;;;;6.63;1.42;;;27.30;99.90;;;;;;5049457;28;38020;-77
2022/08/07 11:19:06;;;;;;;3.33;1.58;;;26.90;99.90;;;;;;5043421;28;37497;-77
2022/08/07 11:22:00;;;;;;;3.28;1.02;;;26.90;99.90;;;;;;5038338;28;46729;-76
2022/08/07 11:24:59;;;;;;;2.65;1.40;;;26.90;99.90;;;;;;5042910;28;47582;-76
2022/08/07 11:27:40;;;;;;;1.23;1.13;;;26.90;99.90;;;;;;5024783;28;37199;-76
2022/08/07 11:30:08;;;;;;;2.03;1.10;;;27.10;99.90;;;;;;5041949;28;36573;-76
2022/08/07 11:32:47;;;;;;;3.00;1.20;;;27.10;99.90;;;;;;5047674;28;38560;-76
2022/08/07 11:35:26;;;;;;;1.90;1.25;;;27.10;99.90;;;;;;5046197;28;39275;-77
2022/08/07 11:38:20;;;;;;;1.42;1.25;;;27.00;99.90;;;;;;5034877;28;37861;-76
2022/08/07 11:41:02;;;;;;;3.10;1.23;;;26.90;99.90;;;;;;5033337;27;48406;-77
2022/08/07 11:43:31;;;;;;;3.47;1.65;;;26.60;99.90;;;;;;5039153;28;48119;-77
2022/08/07 11:46:22;;;;;;;2.50;1.17;;;26.60;99.90;;;;;;5061425;27;38744;-77
2022/08/07 11:49:07;;;;;;;1.70;1.20;;;26.90;99.90;;;;;;5034611;27;48371;-76
2022/08/07 11:52:00;;;;;;;3.90;1.23;;;26.80;99.90;;;;;;5043538;27;49082;-76
2022/08/07 11:54:51;;;;;;;4.18;1.20;;;27.00;99.90;;;;;;5038228;28;38997;-78
2022/08/07 11:57:46;;;;;;;3.22;1.40;;;27.30;99.90;;;;;;5041206;28;38187;-76
2022/08/07 12:00:15;;;;;;;3.10;1.02;;;27.30;99.90;;;;;;5039547;28;36512;-77
2022/08/07 12:02:59;;;;;;;4.65;1.38;;;27.40;99.90;;;;;;5039822;28;36458;-76
2022/08/07 12:05:40;;;;;;;2.28;1.17;;;27.60;99.90;;;;;;5050355;28;39781;-76
2022/08/07 12:08:14;;;;;;;1.30;1.10;;;27.60;99.90;;;;;;5061039;28;39691;-76
2022/08/07 12:10:55;;;;;;;2.10;1.20;;;27.50;99.90;;;;;;5043562;28;20046;-77
2022/08/07 12:13:56;;;;;;;4.13;1.10;;;27.40;99.90;;;;;;5036732;27;38107;-75
2022/08/07 12:16:37;;;;;;;3.00;1.10;;;27.40;99.90;;;;;;5043896;28;37688;-76
2022/08/07 12:19:30;;;;;;;0.98;0.85;;;27.30;99.90;;;;;;5037296;28;37969;-76
2022/08/07 12:22:40;;;;;;;0.90;0.80;;;27.30;99.90;;;;;;5038606;28;38202;-75
2022/08/07 12:28:41;;;;;;;1.40;0.80;;;27.10;99.90;;;;;;5029776;28;40505;-75
2022/08/07 12:31:16;;;;;;;2.78;1.05;;;27.10;99.90;;;;;;5037315;27;39160;-76
2022/08/07 12:33:45;;;;;;;2.70;0.80;;;27.10;99.90;;;;;;5043875;28;39315;-76
2022/08/07 12:36:13;;;;;;;2.00;0.98;;;26.70;99.90;;;;;;5035946;28;38988;-79
2022/08/07 12:38:43;;;;;;;1.67;0.82;;;26.70;99.90;;;;;;5041401;27;38955;-76
2022/08/07 12:41:11;;;;;;;1.08;0.65;;;26.70;99.90;;;;;;5044355;28;37993;-76
2022/08/07 12:43:42;;;;;;;1.80;0.93;;;26.90;99.90;;;;;;5046338;28;37647;-76
2022/08/07 12:46:11;;;;;;;2.60;1.20;;;27.00;99.90;;;;;;5077188;27;37822;-78
2022/08/07 12:49:03;;;;;;;1.70;1.20;;;27.10;99.90;;;;;;5041588;28;38897;-77
2022/08/07 12:51:49;;;;;;;1.30;0.95;;;27.00;99.90;;;;;;5039262;28;47866;-77
2022/08/07 12:54:31;;;;;;;2.92;1.20;;;26.70;99.90;;;;;;5046759;28;38747;-76
2022/08/07 12:56:59;;;;;;;2.03;1.38;;;26.90;99.90;;;;;;5044459;28;36685;-77
2022/08/07 12:59:29;;;;;;;2.60;1.33;;;27.00;99.90;;;;;;5054302;27;39574;-79
2022/08/07 13:02:28;;;;;;;1.58;1.20;;;26.60;99.90;;;;;;5047726;27;37755;-75
2022/08/07 13:04:57;;;;;;;2.53;1.38;;;26.60;99.90;;;;;;5023957;28;47251;-75
2022/08/07 13:07:47;;;;;;;2.08;1.10;;;26.80;99.90;;;;;;5018555;28;36792;-75
2022/08/07 13:10:16;;;;;;;4.20;1.20;;;26.90;99.90;;;;;;5029807;28;37749;-75
2022/08/07 13:13:20;;;;;;;2.47;1.40;;;26.80;99.90;;;;;;5032683;28;39081;-77
2022/08/07 13:15:58;;;;;;;4.07;1.50;;;26.60;99.90;;;;;;5036705;28;47236;-75
2022/08/07 13:18:52;;;;;;;3.13;1.40;;;26.40;99.90;;;;;;5028232;28;38871;-76
2022/08/07 13:21:42;;;;;;;2.80;1.48;;;26.60;99.90;;;;;;5017080;28;38790;-75
2022/08/07 13:24:14;;;;;;;2.40;1.23;;;26.90;99.90;;;;;;5023371;28;39717;-75
2022/08/07 13:26:59;;;;;;;4.00;1.38;;;26.80;99.90;;;;;;5058725;28;38377;-78
2022/08/07 13:29:54;;;;;;;4.00;1.13;;;26.70;99.90;;;;;;5021264;28;38293;-75
2022/08/07 13:32:43;;;;;;;2.60;1.60;;;26.70;99.90;;;;;;5011741;28;39272;-75